createdAt,value
2022-10-05T00:01:34.636Z,7.73
2022-10-05T00:03:36.567Z,7.63
2022-10-05T00:05:38.549Z,7.57
2022-10-05T00:07:40.225Z,7.75
2022-10-05T00:09:42.768Z,7.80
2022-10-05T00:11:45.270Z,7.85
2022-10-05T00:13:46.962Z,7.94
2022-10-05T00:15:49.933Z,7.94
2022-10-05T00:17:51.640Z,7.94
2022-10-05T00:19:54.011Z,7.99
2022-10-05T00:22:09.937Z,8.02
2022-10-05T00:24:13.986Z,7.99
2022-10-05T00:26:28.017Z,7.94
2022-10-05T00:28:30.523Z,7.90
2022-10-05T00:30:34.220Z,7.89
2022-10-05T00:32:35.911Z,7.86
2022-10-05T00:34:38.388Z,7.96
2022-10-05T00:36:40.320Z,7.91
2022-10-05T00:38:42.909Z,8.05
2022-10-05T00:41:05.640Z,8.03
2022-10-05T00:43:27.301Z,7.89
2022-10-05T00:45:38.129Z,8.06
2022-10-05T00:48:00.923Z,8.06
2022-10-05T00:50:33.453Z,8.08
2022-10-05T00:52:45.755Z,8.02
2022-10-05T00:54:51.544Z,8.07
2022-10-05T00:57:21.626Z,8.11
2022-10-05T00:59:46.549Z,8.15
2022-10-05T01:02:03.134Z,8.18
2022-10-05T01:04:24.475Z,8.07
2022-10-05T01:07:03.491Z,8.10
2022-10-05T01:09:15.999Z,8.13
2022-10-05T01:12:02.474Z,8.15
2022-10-05T01:14:10.319Z,8.13
2022-10-05T01:16:26.934Z,8.13
2022-10-05T01:18:41.832Z,8.08
2022-10-05T01:21:05.497Z,7.98
2022-10-05T01:23:51.672Z,7.84
2022-10-05T01:26:02.038Z,7.93
2022-10-05T01:28:34.806Z,8.04
2022-10-05T01:30:56.682Z,7.95
2022-10-05T01:33:01.182Z,7.87
2022-10-05T01:35:09.626Z,7.75
2022-10-05T01:37:30.179Z,7.83
2022-10-05T01:39:56.394Z,7.86
2022-10-05T01:42:01.009Z,7.89
2022-10-05T01:44:20.219Z,8.01
2022-10-05T01:46:42.145Z,8.10
2022-10-05T01:49:01.811Z,8.13
2022-10-05T01:51:22.395Z,8.01
2022-10-05T01:53:32.574Z,8.10
2022-10-05T01:55:53.377Z,8.22
2022-10-05T01:58:07.305Z,8.24
2022-10-05T02:00:10.476Z,8.25
2022-10-05T02:02:19.261Z,8.17
2022-10-05T02:05:00.398Z,8.20
2022-10-05T02:06:52.952Z,8.14
2022-10-05T02:09:02.025Z,8.12
2022-10-05T02:11:09.545Z,8.07
2022-10-05T02:13:42.286Z,8.10
2022-10-05T02:16:17.897Z,8.14
2022-10-05T02:18:28.341Z,8.10
2022-10-05T02:20:35.135Z,8.18
2022-10-05T02:22:53.401Z,8.25
2022-10-05T02:24:59.370Z,8.22
2022-10-05T02:27:04.614Z,8.24
2022-10-05T02:29:10.569Z,8.17
2022-10-05T02:31:16.736Z,8.10
2022-10-05T02:33:33.291Z,8.03
2022-10-05T02:35:35.296Z,8.11
2022-10-05T02:38:08.462Z,8.21
2022-10-05T02:40:10.198Z,8.20
2022-10-05T02:42:21.784Z,8.24
2022-10-05T02:44:40.224Z,8.22
2022-10-05T02:47:08.680Z,8.28
2022-10-05T02:49:19.910Z,8.35
2022-10-05T02:51:53.763Z,8.33
2022-10-05T02:54:13.691Z,8.25
2022-10-05T02:56:24.774Z,8.28
2022-10-05T02:58:32.319Z,8.30
2022-10-05T03:00:42.723Z,8.24
2022-10-05T03:02:47.866Z,8.20
2022-10-05T03:05:18.329Z,8.28
2022-10-05T03:07:52.656Z,8.26
2022-10-05T03:10:05.042Z,8.20
2022-10-05T03:12:21.692Z,8.23
2022-10-05T03:14:33.558Z,8.25
2022-10-05T03:16:42.835Z,8.24
2022-10-05T03:19:10.530Z,8.26
2022-10-05T03:21:34.543Z,8.24
2022-10-05T03:23:57.658Z,8.30
2022-10-05T03:26:33.645Z,8.24
2022-10-05T03:28:51.438Z,8.19
2022-10-05T03:31:16.130Z,8.26
2022-10-05T03:33:43.726Z,8.26
2022-10-05T03:35:57.052Z,8.26
2022-10-05T03:38:07.802Z,8.25
2022-10-05T03:40:34.276Z,8.24
2022-10-05T03:42:57.673Z,8.34
2022-10-05T03:45:17.673Z,8.36
2022-10-05T03:47:34.215Z,8.35
2022-10-05T03:50:00.892Z,8.37
2022-10-05T03:52:13.783Z,8.37
2022-10-05T03:54:28.517Z,8.30
2022-10-05T03:56:30.592Z,8.36
2022-10-05T03:58:39.925Z,8.26
2022-10-05T04:00:46.370Z,8.35
2022-10-05T04:02:51.382Z,8.35
2022-10-05T04:05:02.293Z,8.42
2022-10-05T04:07:09.554Z,8.49
2022-10-05T04:09:25.782Z,8.54
2022-10-05T04:11:54.846Z,8.51
2022-10-05T04:14:04.928Z,8.51
2022-10-05T04:16:18.604Z,8.51
2022-10-05T04:18:32.427Z,8.46
2022-10-05T04:20:44.800Z,8.56
2022-10-05T04:22:58.642Z,8.52
2022-10-05T04:25:17.880Z,8.46
2022-10-05T04:27:27.973Z,8.49
2022-10-05T04:30:03.001Z,8.41
2022-10-05T04:32:10.353Z,8.53
2022-10-05T04:34:49.273Z,8.44
2022-10-05T04:37:01.500Z,8.24
2022-10-05T04:39:31.282Z,8.37
2022-10-05T04:41:44.822Z,8.33
2022-10-05T04:44:04.777Z,8.37
2022-10-05T04:46:33.527Z,8.37
2022-10-05T04:48:47.195Z,8.43
2022-10-05T04:51:02.754Z,8.23
2022-10-05T04:53:04.399Z,8.51
2022-10-05T04:55:21.805Z,8.52
2022-10-05T04:57:29.772Z,8.65
2022-10-05T04:59:40.678Z,8.63
2022-10-05T05:01:42.333Z,8.50
2022-10-05T05:03:53.240Z,8.66
2022-10-05T05:06:28.723Z,8.74
2022-10-05T05:08:52.802Z,8.71
2022-10-05T05:11:06.918Z,8.82
2022-10-05T05:13:11.578Z,8.80
2022-10-05T05:15:46.763Z,8.89
2022-10-05T05:17:58.664Z,8.87
2022-10-05T05:20:21.541Z,9.04
2022-10-05T05:22:44.051Z,9.09
2022-10-05T05:24:57.676Z,9.13
2022-10-05T05:27:28.702Z,9.24
2022-10-05T05:30:03.258Z,9.25
2022-10-05T05:32:22.973Z,9.27
2022-10-05T05:34:47.156Z,9.27
2022-10-05T05:37:05.306Z,9.38
2022-10-05T05:39:19.028Z,9.42
2022-10-05T05:41:23.637Z,9.37
2022-10-05T05:43:33.671Z,9.40
2022-10-05T05:45:48.660Z,9.51
2022-10-05T05:47:54.115Z,9.55
2022-10-05T05:50:07.349Z,9.75
2022-10-05T05:52:20.241Z,9.73
2022-10-05T05:54:31.349Z,9.69
2022-10-05T05:56:39.490Z,9.75
2022-10-05T05:58:45.576Z,9.82
2022-10-05T06:01:30.605Z,9.84
2022-10-05T06:03:46.701Z,9.72
2022-10-05T06:06:02.033Z,9.88
2022-10-05T06:08:27.641Z,9.90
2022-10-05T06:10:50.665Z,9.93
2022-10-05T06:13:00.858Z,10.10
2022-10-05T06:15:27.721Z,10.24
2022-10-05T06:17:39.743Z,10.08
2022-10-05T06:19:43.232Z,10.19
2022-10-05T06:21:54.270Z,10.38
2022-10-05T06:24:04.381Z,10.41
2022-10-05T06:26:31.468Z,10.44
2022-10-05T06:28:33.233Z,10.42
2022-10-05T06:30:43.780Z,10.57
2022-10-05T06:33:06.569Z,10.62
2022-10-05T06:35:45.394Z,10.60
2022-10-05T06:38:14.756Z,10.61
2022-10-05T06:40:44.005Z,10.76
2022-10-05T06:42:59.523Z,10.84
2022-10-05T06:45:07.251Z,10.87
2022-10-05T06:47:20.913Z,11.02
2022-10-05T06:49:51.833Z,11.20
2022-10-05T06:51:56.324Z,11.16
2022-10-05T06:54:09.758Z,11.27
2022-10-05T06:56:24.227Z,11.41
2022-10-05T06:58:48.663Z,11.52
2022-10-05T07:00:56.789Z,11.46
2022-10-05T07:03:23.909Z,11.71
2022-10-05T07:05:47.399Z,11.74
2022-10-05T07:07:57.932Z,11.91
2022-10-05T07:10:23.115Z,12.06
2022-10-05T07:12:42.354Z,12.38
2022-10-05T07:15:02.396Z,12.60
2022-10-05T07:17:25.432Z,12.46
2022-10-05T07:19:46.262Z,12.67
2022-10-05T07:22:11.932Z,12.79
2022-10-05T07:25:01.917Z,12.83
2022-10-05T07:27:12.357Z,12.85
2022-10-05T07:29:26.282Z,12.62
2022-10-05T07:31:55.656Z,12.39
2022-10-05T07:34:08.281Z,12.33
2022-10-05T07:36:29.081Z,12.38
2022-10-05T07:38:38.167Z,12.46
2022-10-05T07:40:50.926Z,12.27
2022-10-05T07:43:01.549Z,12.19
2022-10-05T07:45:26.493Z,12.26
2022-10-05T07:47:41.378Z,12.35
2022-10-05T07:49:55.210Z,12.34
2022-10-05T07:52:05.126Z,12.48
2022-10-05T07:54:16.085Z,12.56
2022-10-05T07:56:23.637Z,12.96
2022-10-05T07:58:31.392Z,13.12
2022-10-05T08:01:00.119Z,13.39
2022-10-05T08:03:11.210Z,13.34
2022-10-05T08:05:35.058Z,13.56
2022-10-05T08:07:37.960Z,13.75
2022-10-05T08:09:59.481Z,14.12
2022-10-05T08:12:11.792Z,14.07
2022-10-05T08:14:23.833Z,14.19
2022-10-05T08:16:30.928Z,14.24
2022-10-05T08:19:08.009Z,14.07
2022-10-05T08:21:10.328Z,14.03
2022-10-05T08:23:22.462Z,14.19
2022-10-05T08:25:57.521Z,14.05
2022-10-05T08:28:10.371Z,14.34
2022-10-05T08:30:15.842Z,14.35
2022-10-05T08:32:28.287Z,14.27
2022-10-05T08:34:48.323Z,14.30
2022-10-05T08:37:00.972Z,14.25
2022-10-05T08:39:11.517Z,14.35
2022-10-05T08:41:31.980Z,14.55
2022-10-05T08:43:54.764Z,14.70
2022-10-05T08:46:22.321Z,14.59
2022-10-05T08:48:57.545Z,14.66
2022-10-05T08:51:25.978Z,14.68
2022-10-05T08:54:04.938Z,14.54
2022-10-05T08:56:30.759Z,14.24
2022-10-05T08:58:39.566Z,14.22
2022-10-05T09:01:01.710Z,14.21
2022-10-05T09:03:57.627Z,14.78
2022-10-05T09:06:13.391Z,15.00
2022-10-05T09:08:48.999Z,15.08
2022-10-05T09:11:04.023Z,15.24
2022-10-05T09:13:30.140Z,15.55
2022-10-05T09:16:12.689Z,15.47
2022-10-05T09:18:41.987Z,15.65
2022-10-05T09:21:15.914Z,15.73
2022-10-05T09:23:35.935Z,15.54
2022-10-05T09:25:43.557Z,15.60
2022-10-05T09:28:13.022Z,15.67
2022-10-05T09:30:22.382Z,15.63
2022-10-05T09:32:54.551Z,15.79
2022-10-05T09:35:27.014Z,16.22
2022-10-05T09:38:13.546Z,16.50
2022-10-05T09:40:44.021Z,16.38
2022-10-05T09:42:57.609Z,16.51
2022-10-05T09:45:23.934Z,16.70
2022-10-05T09:47:55.948Z,17.04
2022-10-05T09:49:57.608Z,16.92
2022-10-05T09:52:13.959Z,17.11
2022-10-05T09:54:24.536Z,17.03
2022-10-05T09:56:47.885Z,17.45
2022-10-05T09:58:58.402Z,17.09
2022-10-05T10:01:32.574Z,17.38
2022-10-05T10:03:52.966Z,17.70
2022-10-05T10:06:30.551Z,17.68
2022-10-05T10:08:57.254Z,17.16
2022-10-05T10:11:35.933Z,16.89
2022-10-05T10:13:57.835Z,16.93
2022-10-05T10:16:05.301Z,17.06
2022-10-05T10:18:19.076Z,17.18
2022-10-05T10:20:46.936Z,17.38
2022-10-05T10:23:07.740Z,17.17
2022-10-05T10:25:24.795Z,17.21
2022-10-05T10:27:45.586Z,17.06
2022-10-05T10:30:08.584Z,17.05
2022-10-05T10:32:47.542Z,17.11
2022-10-05T10:34:55.256Z,16.88
2022-10-05T10:37:22.007Z,16.76
2022-10-05T10:39:56.985Z,16.78
2022-10-05T10:42:40.068Z,16.85
2022-10-05T10:45:20.191Z,16.73
2022-10-05T10:47:34.912Z,16.81
2022-10-05T10:50:14.108Z,16.76
2022-10-05T10:52:40.285Z,16.88
2022-10-05T10:54:50.035Z,16.86
2022-10-05T10:57:13.938Z,16.97
2022-10-05T10:59:32.399Z,16.87
2022-10-05T11:01:47.286Z,16.92
2022-10-05T11:04:13.964Z,16.93
2022-10-05T11:06:36.693Z,17.09
2022-10-05T11:09:03.224Z,17.10
2022-10-05T11:11:16.575Z,17.12
2022-10-05T11:13:51.953Z,16.86
2022-10-05T11:16:18.734Z,16.98
2022-10-05T11:18:46.086Z,17.28
2022-10-05T11:21:40.164Z,17.36
2022-10-05T11:24:05.145Z,17.28
2022-10-05T11:26:18.310Z,16.96
2022-10-05T11:28:40.385Z,16.93
2022-10-05T11:30:51.326Z,17.17
2022-10-05T11:32:58.844Z,17.32
2022-10-05T11:35:31.366Z,17.29
2022-10-05T11:38:04.726Z,17.05
2022-10-05T11:40:32.454Z,16.99
2022-10-05T11:42:37.231Z,17.27
2022-10-05T11:45:00.328Z,17.48
2022-10-05T11:47:28.082Z,17.85
2022-10-05T11:49:39.519Z,17.46
2022-10-05T11:51:51.418Z,17.44
2022-10-05T11:54:06.067Z,17.16
2022-10-05T11:56:32.115Z,17.35
2022-10-05T11:58:51.633Z,17.47
2022-10-05T12:01:14.876Z,17.30
2022-10-05T12:03:29.158Z,17.61
2022-10-05T12:05:43.085Z,17.87
2022-10-05T12:08:10.157Z,17.80
2022-10-05T12:10:23.711Z,17.39
2022-10-05T12:12:31.413Z,17.54
2022-10-05T12:14:44.798Z,17.67
2022-10-05T12:16:53.587Z,17.61
2022-10-05T12:19:16.547Z,17.73
2022-10-05T12:21:43.159Z,17.75
2022-10-05T12:23:59.363Z,17.58
2022-10-05T12:26:08.300Z,17.70
2022-10-05T12:28:14.245Z,17.74
2022-10-05T12:30:58.107Z,17.62
2022-10-05T12:33:19.862Z,17.60
2022-10-05T12:35:50.687Z,17.55
2022-10-05T12:38:11.579Z,17.61
2022-10-05T12:40:42.369Z,17.78
2022-10-05T12:43:05.290Z,17.80
2022-10-05T12:45:27.448Z,17.92
2022-10-05T12:47:42.351Z,17.99
2022-10-05T12:50:13.603Z,17.96
2022-10-05T12:52:36.487Z,17.88
2022-10-05T12:54:57.907Z,18.00
2022-10-05T12:57:08.525Z,17.75
2022-10-05T12:59:34.680Z,17.78
2022-10-05T13:01:44.013Z,17.78
2022-10-05T13:04:23.783Z,17.69
2022-10-05T13:06:28.955Z,17.85
2022-10-05T13:08:50.608Z,17.74
2022-10-05T13:11:14.074Z,17.75
2022-10-05T13:13:36.709Z,17.97
2022-10-05T13:16:16.451Z,17.80
2022-10-05T13:18:37.339Z,17.95
2022-10-05T13:20:59.744Z,17.55
2022-10-05T13:23:35.149Z,17.41
2022-10-05T13:25:53.437Z,17.48
2022-10-05T13:28:21.964Z,17.60
2022-10-05T13:30:23.780Z,17.55
2022-10-05T13:32:30.748Z,17.73
2022-10-05T13:34:38.650Z,17.74
2022-10-05T13:36:52.971Z,17.67
2022-10-05T13:39:28.385Z,17.42
2022-10-05T13:41:48.115Z,17.47
2022-10-05T13:43:58.832Z,17.52
2022-10-05T13:46:21.811Z,17.63
2022-10-05T13:48:57.549Z,17.58
2022-10-05T13:51:08.777Z,17.36
2022-10-05T13:53:36.242Z,17.33
2022-10-05T13:55:55.383Z,17.27
2022-10-05T13:58:04.086Z,17.36
2022-10-05T14:00:26.912Z,17.50
2022-10-05T14:02:39.551Z,17.28
2022-10-05T14:04:49.858Z,17.40
2022-10-05T14:06:52.113Z,17.50
2022-10-05T14:08:54.328Z,17.40
2022-10-05T14:10:56.748Z,17.34
2022-10-05T14:12:58.819Z,17.34
2022-10-05T14:15:19.701Z,17.38
2022-10-05T14:17:33.558Z,17.46
2022-10-05T14:19:48.147Z,17.44
2022-10-05T14:22:13.837Z,17.49
2022-10-05T14:24:45.065Z,17.49
2022-10-05T14:26:55.146Z,17.32
2022-10-05T14:29:03.455Z,17.30
2022-10-05T14:31:13.658Z,17.40
2022-10-05T14:33:16.501Z,17.36
2022-10-05T14:35:20.299Z,17.33
2022-10-05T14:37:31.802Z,17.38
2022-10-05T14:39:34.755Z,17.36
2022-10-05T14:41:42.220Z,17.35
2022-10-05T14:44:13.090Z,17.37
2022-10-05T14:46:27.182Z,17.28
2022-10-05T14:48:44.787Z,17.23
2022-10-05T14:50:57.980Z,17.25
2022-10-05T14:53:11.642Z,17.26
2022-10-05T14:55:30.892Z,17.25
2022-10-05T14:57:40.046Z,17.29
2022-10-05T15:00:03.837Z,17.24
2022-10-05T15:02:27.251Z,17.13
2022-10-05T15:04:44.333Z,17.07
2022-10-05T15:07:04.268Z,16.99
2022-10-05T15:09:31.920Z,16.84
2022-10-05T15:11:47.118Z,16.74
2022-10-05T15:13:49.910Z,16.78
2022-10-05T15:15:55.469Z,16.87
2022-10-05T15:18:14.528Z,16.86
2022-10-05T15:20:22.318Z,16.72
2022-10-05T15:23:10.630Z,16.67
2022-10-05T15:25:21.889Z,16.52
2022-10-05T15:27:26.339Z,16.41
2022-10-05T15:30:02.690Z,16.50
2022-10-05T15:32:13.173Z,16.53
2022-10-05T15:34:44.926Z,16.54
2022-10-05T15:36:57.440Z,16.53
2022-10-05T15:39:14.321Z,16.53
2022-10-05T15:41:23.693Z,16.47
2022-10-05T15:43:31.224Z,16.50
2022-10-05T15:45:36.135Z,16.40
2022-10-05T15:48:07.559Z,16.25
2022-10-05T15:50:24.612Z,16.08
2022-10-05T15:52:56.650Z,15.94
2022-10-05T15:55:49.398Z,15.93
2022-10-05T15:58:09.508Z,15.92
2022-10-05T16:00:23.406Z,15.83
2022-10-05T16:02:33.211Z,15.79
2022-10-05T16:04:55.386Z,15.75
2022-10-05T16:07:02.738Z,15.76
2022-10-05T16:09:23.144Z,15.72
2022-10-05T16:11:58.278Z,15.72
2022-10-05T16:14:10.240Z,15.61
2022-10-05T16:16:11.887Z,15.66
2022-10-05T16:18:36.990Z,15.68
2022-10-05T16:21:15.395Z,15.66
2022-10-05T16:23:33.230Z,15.33
2022-10-05T16:25:37.587Z,15.07
2022-10-05T16:28:07.909Z,14.97
2022-10-05T16:30:17.599Z,14.86
2022-10-05T16:32:27.702Z,14.78
2022-10-05T16:34:50.642Z,14.79
2022-10-05T16:37:18.950Z,14.70
2022-10-05T16:39:45.697Z,14.78
2022-10-05T16:42:08.897Z,14.73
2022-10-05T16:44:38.931Z,14.58
2022-10-05T16:46:55.489Z,14.37
2022-10-05T16:49:15.920Z,14.35
2022-10-05T16:51:57.756Z,14.33
2022-10-05T16:54:30.452Z,14.33
2022-10-05T16:56:39.984Z,14.28
2022-10-05T16:59:03.515Z,14.34
2022-10-05T17:01:44.175Z,14.18
2022-10-05T17:04:32.695Z,14.19
2022-10-05T17:06:51.702Z,14.18
2022-10-05T17:09:11.670Z,14.21
2022-10-05T17:11:51.509Z,14.18
2022-10-05T17:14:25.847Z,14.08
2022-10-05T17:16:51.218Z,14.01
2022-10-05T17:19:30.639Z,13.99
2022-10-05T17:21:56.583Z,14.05
2022-10-05T17:24:16.971Z,14.04
2022-10-05T17:26:46.179Z,14.02
2022-10-05T17:29:24.931Z,13.88
2022-10-05T17:31:29.445Z,13.89
2022-10-05T17:33:32.818Z,13.87
2022-10-05T17:36:07.515Z,13.92
2022-10-05T17:38:12.094Z,13.86
2022-10-05T17:40:29.478Z,13.71
2022-10-05T17:42:34.185Z,13.74
2022-10-05T17:44:36.877Z,13.84
2022-10-05T17:46:52.539Z,13.81
2022-10-05T17:48:54.222Z,13.78
2022-10-05T17:50:56.053Z,13.80
2022-10-05T17:53:34.782Z,13.73
2022-10-05T17:55:49.116Z,13.65
2022-10-05T17:57:50.870Z,13.67
2022-10-05T17:59:53.862Z,13.75
2022-10-05T18:02:16.174Z,13.80
2022-10-05T18:04:17.894Z,13.84
2022-10-05T18:06:34.634Z,13.89
2022-10-05T18:08:37.833Z,13.87
2022-10-05T18:11:11.229Z,13.93
2022-10-05T18:13:33.271Z,13.85
2022-10-05T18:15:34.940Z,13.81
2022-10-05T18:17:54.577Z,13.76
2022-10-05T18:20:24.625Z,13.81
2022-10-05T18:22:29.089Z,13.78
2022-10-05T18:24:48.692Z,13.78
2022-10-05T18:27:27.485Z,13.70
2022-10-05T18:29:59.731Z,13.70
2022-10-05T18:32:08.133Z,13.69
2022-10-05T18:34:18.139Z,13.69
2022-10-05T18:36:57.316Z,13.60
2022-10-05T18:39:05.093Z,13.64
2022-10-05T18:41:13.056Z,13.59
2022-10-05T18:43:20.377Z,13.62
2022-10-05T18:45:59.673Z,13.49
2022-10-05T18:48:35.137Z,13.52
2022-10-05T18:50:56.031Z,13.46
2022-10-05T18:53:00.297Z,13.42
2022-10-05T18:55:31.434Z,13.28
2022-10-05T18:57:43.931Z,13.24
2022-10-05T19:00:15.488Z,13.27
2022-10-05T19:02:26.400Z,13.15
2022-10-05T19:04:50.791Z,13.15
2022-10-05T19:07:35.742Z,13.01
2022-10-05T19:10:01.540Z,12.93
2022-10-05T19:12:34.430Z,12.82
2022-10-05T19:14:41.289Z,12.82
2022-10-05T19:17:20.578Z,12.88
2022-10-05T19:19:33.152Z,12.85
2022-10-05T19:21:47.350Z,12.75
2022-10-05T19:24:23.005Z,12.83
2022-10-05T19:26:38.186Z,12.87
2022-10-05T19:28:48.972Z,12.86
2022-10-05T19:31:12.830Z,12.85
2022-10-05T19:33:32.390Z,12.84
2022-10-05T19:35:43.123Z,12.86
2022-10-05T19:38:26.115Z,12.84
2022-10-05T19:40:38.064Z,12.87
2022-10-05T19:42:58.298Z,12.91
2022-10-05T19:45:13.019Z,12.85
2022-10-05T19:47:40.277Z,12.85
2022-10-05T19:49:56.603Z,12.85
2022-10-05T19:51:58.301Z,12.79
2022-10-05T19:54:12.431Z,12.80
2022-10-05T19:56:20.237Z,12.80
2022-10-05T19:58:23.637Z,12.75
2022-10-05T20:00:33.914Z,12.77
2022-10-05T20:02:38.656Z,12.79
2022-10-05T20:04:46.265Z,12.84
2022-10-05T20:06:47.978Z,12.85
2022-10-05T20:08:56.264Z,12.67
2022-10-05T20:11:18.154Z,12.71
2022-10-05T20:13:22.047Z,12.62
2022-10-05T20:15:32.291Z,12.64
2022-10-05T20:17:33.995Z,12.61
2022-10-05T20:19:38.157Z,12.63
2022-10-05T20:21:56.951Z,12.62
2022-10-05T20:24:28.443Z,12.56
2022-10-05T20:26:51.620Z,12.47
2022-10-05T20:28:53.579Z,12.44
2022-10-05T20:30:55.357Z,12.51
2022-10-05T20:32:58.823Z,12.55
2022-10-05T20:35:00.806Z,12.54
2022-10-05T20:37:03.643Z,12.60
2022-10-05T20:39:05.326Z,12.44
2022-10-05T20:41:07.119Z,12.48
2022-10-05T20:43:08.840Z,12.48
2022-10-05T20:45:12.209Z,12.46
2022-10-05T20:47:14.258Z,12.38
2022-10-05T20:49:16.044Z,12.43
2022-10-05T20:51:17.714Z,12.50
2022-10-05T20:53:20.096Z,12.52
2022-10-05T20:55:21.808Z,12.59
2022-10-05T20:57:23.693Z,12.52
2022-10-05T20:59:26.231Z,12.55
2022-10-05T21:01:28.004Z,12.60
2022-10-05T21:03:29.708Z,12.51
2022-10-05T21:05:31.522Z,12.43
2022-10-05T21:07:33.284Z,12.37
2022-10-05T21:09:34.968Z,12.33
2022-10-05T21:11:37.530Z,12.33
2022-10-05T21:13:40.418Z,12.37
2022-10-05T21:15:42.109Z,12.35
2022-10-05T21:17:43.960Z,12.36
2022-10-05T21:19:46.459Z,12.26
2022-10-05T21:21:48.188Z,12.37
2022-10-05T21:23:50.039Z,12.30
2022-10-05T21:25:51.722Z,12.40
2022-10-05T21:27:53.392Z,12.35
2022-10-05T21:29:55.253Z,12.38
2022-10-05T21:31:57.463Z,12.36
2022-10-05T21:33:59.279Z,12.29
2022-10-05T21:36:01.666Z,12.39
2022-10-05T21:38:03.355Z,12.35
2022-10-05T21:40:05.433Z,12.42
2022-10-05T21:42:07.379Z,12.41
2022-10-05T21:44:09.060Z,12.43
2022-10-05T21:46:12.959Z,12.38
2022-10-05T21:48:16.736Z,12.40
2022-10-05T21:50:18.272Z,12.40
2022-10-05T21:52:20.927Z,12.25
2022-10-05T21:54:23.746Z,12.25
2022-10-05T21:56:31.398Z,12.27
2022-10-05T21:58:33.240Z,12.35
2022-10-05T22:00:35.305Z,12.31
2022-10-05T22:02:37.474Z,12.29
2022-10-05T22:04:39.182Z,12.35
2022-10-05T22:06:41.179Z,12.33
2022-10-05T22:08:43.363Z,12.37
2022-10-05T22:10:45.257Z,12.37
2022-10-05T22:12:47.270Z,12.22
2022-10-05T22:14:48.977Z,12.32
2022-10-05T22:16:50.723Z,12.21
2022-10-05T22:18:52.598Z,12.31
2022-10-05T22:20:54.283Z,12.18
2022-10-05T22:22:56.253Z,12.23
2022-10-05T22:24:58.044Z,12.16
2022-10-05T22:26:59.835Z,12.18
2022-10-05T22:29:02.666Z,12.17
2022-10-05T22:31:06.730Z,12.18
2022-10-05T22:33:08.473Z,12.18
2022-10-05T22:35:11.677Z,12.12
2022-10-05T22:37:14.171Z,12.10
2022-10-05T22:39:16.790Z,12.17
2022-10-05T22:41:18.832Z,12.06
2022-10-05T22:43:20.620Z,12.03
2022-10-05T22:45:22.636Z,12.00
2022-10-05T22:47:24.528Z,12.13
2022-10-05T22:49:26.708Z,12.07
2022-10-05T22:51:28.639Z,11.89
2022-10-05T22:53:30.336Z,12.00
2022-10-05T22:55:32.195Z,12.04
2022-10-05T22:57:40.906Z,12.01
2022-10-05T22:59:42.906Z,11.97
2022-10-05T23:01:44.735Z,12.02
2022-10-05T23:03:46.536Z,11.92
2022-10-05T23:05:48.278Z,11.98
2022-10-05T23:07:50.282Z,12.07
2022-10-05T23:09:52.015Z,12.02
2022-10-05T23:11:53.913Z,12.01
2022-10-05T23:13:56.889Z,11.95
2022-10-05T23:15:58.670Z,11.98
2022-10-05T23:18:00.603Z,11.92
2022-10-05T23:20:03.456Z,11.98
2022-10-05T23:22:05.137Z,11.96
2022-10-05T23:24:07.322Z,12.01
2022-10-05T23:26:11.626Z,12.02
2022-10-05T23:28:13.447Z,12.05
2022-10-05T23:30:15.484Z,11.93
2022-10-05T23:32:17.238Z,12.08
2022-10-05T23:34:18.942Z,11.99
2022-10-05T23:36:26.681Z,11.98
2022-10-05T23:38:29.672Z,12.08
2022-10-05T23:40:31.738Z,12.04
2022-10-05T23:42:33.647Z,12.07
2022-10-05T23:44:35.407Z,12.09
2022-10-05T23:46:37.134Z,12.02
2022-10-05T23:48:39.458Z,12.09
2022-10-05T23:50:45.603Z,12.13
2022-10-05T23:52:47.351Z,12.09
2022-10-05T23:54:49.118Z,12.11
2022-10-05T23:56:50.899Z,12.12
2022-10-05T23:58:52.707Z,12.10
